Season 21
 
 
 

TWL – Player Statistics
 


Seasons: 1 - 2 - 3 - 4 - 5 - 6 - 7 - 8 - 9 - 10 - 11 - 12 - 13 - 14 - 15 - 16 - 17 - 18 - 19 - 20 - 21

Leagues: All Leagues - TWLD - TWLJ - TWLB

Ships: All ships - Warbird - Javelin - Spider - Terrier - Lancaster - Shark

Player Squad G SPK TRK SRK JTK STK FT W L AVK HW AVD AVP RT LO SUB TP
diakka Pandora 10 334 11 190 0 0 13 536 249 52 108 24 10669 101552 0 0 4:54:53
turmio Penetrate 10 551 15 322 0 0 10 893 617 89 123 61 16431 131515 1 0 4:54:18
Trasher Penetrate 10 567 13 391 0 0 14 983 420 99 128 41 18352 258009 0 1 4:42:57
Vatican Assassin Pandora 9 76 4 20 1 7 65 100 865 11 15 96 4599 -14612 1 0 4:30:35
JAMAL dicE 9 323 9 293 0 1 28 636 441 71 116 49 10372 101238 0 0 4:10:10
Cintra Penetrate 8 197 6 90 0 0 4 294 29 37 44 4 11366 146490 1 0 4:06:22
Leitz Pandora 9 418 11 342 0 0 22 771 572 86 111 64 14261 117056 2 0 4:05:04
zhou Penetrate 9 441 19 280 0 0 10 747 451 82 122 50 18552 137273 0 1 4:03:42
saetep Freebie 8 392 4 250 0 1 4 660 456 81 115 60 13852 90331 0 0 3:54:45
Downfall Freebie 8 79 5 31 0 7 55 117 751 14 29 92 4008 -11502 0 0 3:47:27
Pressure Drop Sage 8 29 6 17 0 2 41 53 723 7 11 90 3568 -4589 1 0 3:44:28
veLOce Penetrate 7 65 2 32 0 6 71 102 684 14 24 97 5966 -12790 0 0 3:43:11
fermata Penetrate 7 52 8 29 0 1 40 89 640 13 18 91 4983 -10429 1 0 3:41:05
Cig Smoke Sage 7 51 3 18 0 5 36 74 688 11 14 98 4204 -7591 0 0 3:35:31
megaman89 dicE 8 371 9 245 0 0 14 627 297 75 110 41 12106 126346 0 0 3:32:58
shayde Pandora 7 392 6 268 0 0 6 666 429 95 115 59 18116 120185 0 0 3:30:33
Frank The Tank! Freebie 7 276 4 222 0 0 10 511 414 73 111 59 10386 66677 1 0 3:29:43
Gazo Sage 8 369 6 281 0 0 13 677 386 85 139 48 12816 145431 1 1 3:26:33
SARGER Pandora 8 337 5 245 0 0 3 587 443 73 118 55 11264 76499 5 3 3:26:23
zeebu Sweet 7 194 3 151 0 0 6 359 279 41 98 32 7715 5574 0 0 3:23:19
M_M God Sage 8 309 5 220 0 0 5 550 327 61 106 38 13377 89179 1 0 3:13:58
turban Sk8 6 322 19 178 0 7 4 519 362 83 119 60 14589 82730 9 0 3:12:37
Creature Sk8 6 29 3 8 1 1 46 40 627 7 13 105 3360 -4236 1 0 3:12:29
NL>Trigger Sage 8 268 4 206 0 0 5 490 350 61 79 44 10429 76244 2 1 3:05:54
Violence Freebie 8 150 5 165 0 2 21 330 480 43 89 61 7663 44713 1 1 3:05:40
Spikey Sage 6 259 12 146 0 0 18 441 322 69 129 53 17306 43746 2 0 3:02:51
thix Sweet 7 120 6 94 0 0 6 223 126 41 103 24 7117 415 10 2 3:02:14
Mythril Pandora 7 30 2 10 0 0 48 42 643 6 12 92 3314 -4133 0 0 3:02:04
Necromotic Sk8 6 230 2 175 0 8 3 407 282 67 111 51 13555 41459 0 0 2:50:42
renzi Pandora 8 317 7 164 0 1 4 490 270 64 108 33 15283 82413 2 3 2:49:26
Whimp Sage 6 290 2 165 0 0 3 461 327 77 102 55 11931 60283 0 0 2:47:34
Dsin Pandora 7 283 7 172 0 0 2 462 320 66 99 46 12690 67674 0 2 2:43:04
cripple dicE 6 272 7 261 0 0 9 540 313 90 133 52 12193 118430 2 1 2:42:22
TPZ Freebie 6 188 4 136 0 1 12 335 234 52 99 38 8394 39308 0 4 2:37:32
superstar-PROkiller Sage 6 250 3 191 0 0 18 444 388 74 102 65 10928 39413 0 0 2:34:00
Dutch Baser Freebie 5 216 5 189 0 0 1 421 277 76 109 51 11284 59243 0 0 2:33:13
Ricko Freebie 5 265 2 172 0 0 10 439 328 88 109 66 11710 50895 3 0 2:32:25
POXY Sweet 6 206 0 163 0 0 10 376 301 63 97 50 6985 32952 0 0 2:32:01
Davy Penetrate 6 239 4 145 0 3 11 388 323 65 156 54 11814 86024 1 1 2:29:50
menelvagor Pandora 6 30 7 15 0 3 13 52 399 9 12 67 4566 -6330 1 2 2:26:03
AcidBomber Penetrate 5 237 6 95 0 2 4 338 238 63 95 42 23606 29146 0 0 2:21:09
nimp Sweet 5 92 4 28 0 6 18 133 409 27 36 82 4248 -12197 2 0 2:16:35
Panama dicE 5 190 3 158 0 0 3 356 200 71 84 40 10318 56018 4 1 2:15:54
Pure_Luck Freebie 5 105 5 43 0 0 6 158 43 32 43 9 6548 -20779 2 0 2:14:50
dreamwin Sk8 4 80 3 31 0 0 7 114 29 29 34 7 5393 -11994 0 0 2:12:07
Anidalife dicE 6 238 1 85 0 0 1 325 208 54 90 35 8398 38530 0 1 2:06:27
Hulk Freebie 5 130 0 77 0 0 9 207 285 35 105 64 5849 23621 0 1 2:06:21
Zung Pandora 4 242 2 186 0 0 13 430 292 108 135 73 18103 86719 0 0 2:05:13
TABARNAK!!! dicE 5 44 3 17 2 4 27 64 387 13 24 77 4204 -6338 0 1 2:04:39
tim Pandora 4 71 5 44 0 0 13 120 26 30 35 7 7044 9945 0 0 2:03:03
Blahhy. TrAUMA+ 5 61 1 24 0 0 5 86 50 13 36 8 2957 -17537 3 3 2:02:41
swire Sweet 4 163 2 168 0 0 10 339 218 85 96 55 8720 41010 0 0 2:01:27
Ephemeral TrAUMA+ 5 36 1 42 0 3 18 80 325 14 64 63 2366 2602 2 0 1:59:42
Zizzo Sk8 4 211 0 124 0 0 3 335 313 84 116 78 9979 22743 0 1 1:57:08
Riverside Sweet 4 19 3 11 0 4 18 34 354 9 16 89 2447 -3473 0 0 1:56:43
fit of rage Penetrate 6 210 1 149 0 0 5 363 172 61 87 29 12979 82709 0 1 1:53:54
sacra Sweet 4 139 2 91 0 0 4 241 231 60 76 58 7016 9187 0 0 1:53:36
Stayon dicE 7 174 2 88 0 0 0 271 156 39 102 22 7019 46404 5 5 1:51:34
i.d. Sk8 4 189 2 166 0 0 1 357 222 89 109 56 12127 59802 0 1 1:50:25
Tigron-X TrAUMA+ 4 14 1 11 0 1 9 26 286 7 9 60 1732 -339 0 0 1:49:57
Ease Sk8 4 130 0 95 1 1 26 225 264 56 104 66 6783 15952 0 1 1:49:38
TheWadoRooster TrAUMA+ 4 116 1 111 0 0 4 238 197 60 78 49 5226 15903 0 0 1:45:32
temporary Penetrate 4 207 4 165 0 0 4 379 200 95 158 50 15068 104508 5 1 1:41:53
Falk Sk8 3 35 1 6 1 2 31 42 334 14 21 111 3177 -3631 0 0 1:39:57
Gran Guerrero Freebie 3 24 4 12 0 0 43 41 292 14 15 97 4976 -2539 2 0 1:37:51
Minotar Penetrate 3 143 1 130 0 0 3 283 168 94 98 56 15407 58647 0 0 1:34:10
Everett dicE 4 63 4 30 0 0 1 99 15 22 41 4 6503 37511 0 2 1:33:42
Nit3 TrAUMA+ 4 91 2 89 0 1 1 189 212 42 72 51 4257 5531 6 0 1:32:29
riske dicE 4 6 2 10 0 2 35 19 268 5 8 67 2201 -2169 2 0 1:29:27
humid Sk8 3 134 2 113 0 0 0 249 181 83 103 60 10858 30214 0 0 1:29:25
PjOtTeR Sweet 3 124 1 85 0 0 4 216 201 71 79 67 12399 9917 4 0 1:29:08
Major Crisis Sage 4 28 2 24 0 2 3 54 170 14 32 43 4288 -14082 0 2 1:29:03
a2m Sweet 3 17 3 10 0 2 25 30 285 10 20 95 3204 -2375 0 0 1:28:12
Jason Sweet 3 44 0 58 0 0 22 109 194 36 54 65 4929 5536 1 0 1:27:54
Plenty O`Toole Penetrate 3 15 2 8 0 0 37 25 244 8 11 81 4268 -1825 0 0 1:26:01
Cape dicE 5 83 4 36 0 3 7 123 123 26 34 20 8899 9438 2 4 1:25:37
Lionheart Sweet 4 149 4 113 0 0 6 271 151 68 134 38 8297 54758 1 1 1:22:06
Riff_Raff dicE 3 165 4 87 0 0 1 259 106 86 110 35 14544 58706 0 0 1:20:20
Mattey dicE 4 20 1 6 0 1 6 29 197 7 10 49 3517 -3088 0 0 1:19:01
Zizu dicE 3 69 0 24 0 0 0 93 16 31 37 5 4643 12281 0 0 1:16:01
cuji Sk8 4 124 4 101 0 0 3 229 167 57 108 42 7441 29266 0 0 1:15:56
SurpasseD TrAUMA+ 3 42 2 32 0 0 10 76 226 25 49 72 4124 2283 0 0 1:11:04
Dwopple dicE 3 19 0 6 0 6 7 25 242 8 12 81 2330 -1761 0 1 1:10:29
qs TrAUMA+ 3 62 2 71 0 0 1 139 187 46 65 62 3730 2032 2 0 1:10:15
sCHOPe NORRIS TrAUMA+ 3 78 0 71 0 0 0 153 115 45 59 37 2843 2261 0 0 1:07:50
EVUL Pandora 4 120 7 97 0 0 0 224 123 56 83 31 9260 39081 0 0 1:07:47
squallFF8 Pandora 3 107 1 68 0 0 2 176 114 59 73 38 10727 22563 0 0 1:06:09
cyrus Sage 3 101 1 80 0 0 1 194 149 65 95 50 6807 15547 0 0 1:06:03
hector yazalde Sage 3 115 3 78 0 0 4 204 139 68 120 46 10851 31972 0 1 1:06:03
l>$B Pandora 2 148 2 79 0 0 1 229 103 115 117 52 18065 58442 0 0 1:04:22
Raples Sk8 2 98 0 84 0 0 1 182 96 91 93 48 11907 31537 0 0 1:00:07
paska dicE 3 68 3 51 0 0 5 125 68 42 79 23 9712 22217 1 1 0:58:54
Mikkiz Sage 3 34 2 12 0 0 3 50 10 17 23 3 3692 1783 0 0 0:57:54
bolt Freebie 2 76 0 45 0 0 0 121 91 61 67 46 9490 8398 0 1 0:54:35
WingZero Penetrate 2 33 4 12 0 0 2 50 4 25 29 2 7168 27016 0 0 0:54:23
Domi Sage 2 35 5 21 0 0 1 61 10 31 34 5 6723 16698 0 0 0:53:54
Fludd Sk8 2 36 0 28 0 1 7 64 136 32 52 68 5951 2596 0 1 0:52:03
hERMit Freebie 2 22 2 18 0 0 3 42 14 21 30 7 4156 897 0 0 0:51:05
Raspi Sweet 2 68 1 51 0 0 0 137 111 72 58 58 19659 6111 0 2 0:49:34
Mr.Todolorosso TrAUMA+ 2 55 2 55 0 0 0 112 99 56 73 50 4835 6442 0 0 0:49:22
Dead_Rain Sweet 2 75 0 47 0 0 0 122 91 45 109 37 8512 17600 2 0 0:47:43
Nycle Sage 2 20 2 7 0 0 0 29 12 15 19 6 3961 7101 0 0 0:46:32
Zyclon Sage 3 4 0 0 0 1 2 4 71 1 2 24 1550 -229 2 2 0:45:38
BrokenFist Penetrate 2 83 2 49 0 0 2 134 72 67 91 36 10486 18516 0 0 0:37:53
scoop Sk8 2 74 0 35 0 0 1 109 82 55 74 41 6435 5780 0 0 0:37:37
Dr.Coiff Freebie 2 66 3 37 0 0 1 108 85 54 86 43 8633 8212 0 0 0:36:56
EO-50 TrAUMA+ 2 16 0 12 0 0 1 29 75 12 20 44 1524 -28 0 1 0:35:20
blood Sweet 1 51 0 42 0 0 2 93 63 93 93 63 12348 12980 0 0 0:34:34
Oh Shiz Son Its Joe dicE 2 10 0 2 0 1 6 12 116 6 11 58 2343 -784 0 0 0:33:55
nokkonen dicE 2 61 0 27 0 0 3 88 37 59 88 24 18583 21236 0 1 0:33:48
cocaine TrAUMA+ 2 36 0 21 0 0 0 57 75 29 47 38 1708 -272 0 1 0:33:42
OCB TrAUMA+ 1 32 1 46 0 0 0 80 85 80 80 85 10335 5266 0 0 0:33:39
kid Freebie 2 58 0 52 0 0 1 110 67 58 63 31 13023 12865 0 0 0:33:26
Burnt Sk8 1 74 1 34 0 0 2 109 60 109 109 60 16212 19947 0 0 0:33:16
EvilDeed dicE 2 22 2 10 0 0 0 34 3 17 34 2 4243 22974 0 0 0:33:08
Remu Sweet 1 48 0 42 0 0 1 90 65 90 90 65 9106 8770 0 0 0:32:55
Sal Sweet 1 10 0 4 0 2 8 14 92 14 14 92 3799 -1170 0 0 0:32:04
fizzy Sk8 1 7 1 6 2 1 9 14 103 14 14 103 3090 -2045 0 0 0:31:59
wbm dicE 2 66 0 37 0 0 2 103 70 52 97 35 7920 17243 0 0 0:29:46
celly Penetrate 1 44 2 19 0 0 0 66 49 66 40 49 36513 4083 0 0 0:29:45
havok dicE 1 3 0 1 0 0 9 4 93 4 4 93 6468 -751 0 0 0:29:35
Cucu TrAUMA+ 1 40 0 38 0 0 0 78 43 78 78 43 7498 8493 3 0 0:29:16
SDMS3 Sweet 1 33 0 16 0 0 0 49 40 49 49 40 7838 2332 0 1 0:27:53
RUCCI Pandora 1 60 1 36 0 0 0 97 38 97 97 38 16567 25142 0 0 0:27:51
idk&idc Sage 1 28 1 36 0 0 1 65 69 65 65 69 8825 3402 0 1 0:26:26
El_Mariachi Penetrate 1 9 1 2 0 0 2 12 55 12 12 55 5320 -585 0 0 0:22:34
Teh Super Sage 1 38 0 30 0 0 2 68 39 68 68 39 7923 7099 0 0 0:22:12
Scarce Sweet 1 28 0 25 0 0 2 57 60 57 57 60 6969 1630 0 0 0:21:57
Dazz TrAUMA+ 1 23 0 17 0 0 1 41 46 41 41 46 928 71 2 0 0:21:33
mci TrAUMA+ 1 18 0 25 0 0 0 43 53 43 43 53 890 105 0 0 0:19:01
maketso dicE 2 13 0 3 0 0 0 16 13 8 9 7 1750 77 0 1 0:15:57
Arobas+ Freebie 1 9 0 12 0 0 0 21 10 21 21 10 4038 1498 2 1 0:15:28
spell TrAUMA+ 1 0 0 1 0 0 0 1 0 1 1 0 4 0 0 1 0:15:14
Mr. Brown Sage 1 36 3 23 0 0 0 62 36 62 62 36 11867 9289 0 0 0:15:03
jerome TrAUMA+ 1 39 0 17 0 0 0 56 39 56 56 39 7679 3449 0 0 0:15:00
luige TrAUMA+ 1 10 0 10 0 0 0 21 36 21 21 36 483 -86 1 1 0:13:26
Mess dicE 1 28 0 12 0 0 0 40 33 40 40 33 2842 611 0 0 0:13:09
money Pandora 1 30 1 13 0 0 0 44 31 44 44 31 11215 4023 0 0 0:12:51
max b Freebie 1 1 0 2 0 0 4 3 31 3 3 31 816 -22 0 1 0:11:08
Dak Sweet 1 7 0 10 0 0 0 18 34 18 18 34 153 -28 0 0 0:10:11
oDeRus UrUnGuS Pandora 1 6 0 3 0 0 0 9 1 9 9 1 4698 858 0 1 0:10:08
usoi Penetrate 1 1 1 8 0 0 0 10 9 10 10 9 3081 483 2 1 0:05:49
dald Sk8 1 0 0 1 0 0 0 1 0 1 1 0 2603 92 0 1 0:04:58
Kuukunen Sweet 1 5 0 3 0 0 0 9 3 9 9 3 176 -113 0 0 0:04:37
tj hazuki Freebie 1 10 0 7 0 0 0 17 11 17 17 11 3626 686 0 0 0:04:26
Bacon Penetrate 1 4 2 3 0 0 0 9 6 9 9 6 4542 449 0 0 0:03:16
Beng Freebie 1 2 0 3 0 0 0 5 4 5 5 4 1830 107 0 1 0:02:31
meow TrAUMA+ 1 2 0 4 0 0 0 6 8 6 6 8 48 0 0 0 0:01:57
Sphinktor Freebie 1 0 0 1 0 0 0 1 0 1 1 0 205 7 0 0 0:00:08

 
 

Central: Pacific: Eastern:
London: New Zealand: Australia:
Helsinki: Brazil: Netherlands: